Pagrindinis puslapis
METAR-TAF:

METAR-TAF

Oro uostai :

Pittsburgh International Airport

Pitsburgas, Pensilvanija, Jungtinės Amerikos Valstijos

platuma: 40-30-14N, ilguma: 080-15-59W, Aukštis: 366 m

Dabartinis oras

Ataskaita buvo paskelbta 21 minutes, ne 01:51 UTC
Vėjas 4 kt iš Pietryčių
Temperatūra 18°C
Drėgmė 59%
Slėgis 1023 hPa
Matomumas: 16.1 km
Mažai debesys ne aukštis 25000 ft

METAR: KPIT 200151Z 13004KT 10SM FEW250 18/10 A3021 RMK AO2 SLP233 T01830100

Laikas: 22:12 (02:12 UTC)

Prognozė

Ataskaita buvo paskelbta 2 valandos ir 52 minutes, ne 23:20 UTC
Prognozė galioja nuo 20 metu 00 UTC su 21 metu 06 UTC
Vėjas 5 kt iš Rytų/Pietryčių
Matomumas: 10 km
Išsisklaidę debesys ne aukštis 25000 ft

TAF: KPIT 192320Z 2000/2106 12005KT P6SM SCT250

Orai ataskaitas ir orų prognozės (METAR, TAF).

turimą stotys yra geltonos ir raudonos taškus žemėlapyje.

Perkelti pele per norėdami pamatyti stoties vardą.

Tada spustelėkite, norėdami matyti oro stebėjimo ir prognozės.

Norėdami pakeisti žemėlapį: spustelėkite ant žalios mygtukų su juodo kryžiaus žemyn,; žalią mygtuką su brūkšneliu, jei norite nutolinti; arba žalių rodyklių gretimoms žemėlapius.


METAR-TAF: